Cea Eagle — 3FWZ9 — position and weather

sailwx.info

Track history (hours):
 
Tides and Currents Weather Stations Pressure Air Temp Water Temp Dewpoint Dewpoint Depression Visibility Wind Speed Wind Dir Waves Ship Positions

Cea Eagle

Last reported at 2018-Jun-17 22:37 UTC. Time now 2018-Jun-20 03:58 UTC.
Position N 45°26' E 036°42'.

Length 228 m.

Type: Ship. MMSI: 351071424.

Date/timePositionNaut miles runAvg speedWind from/ knotsBaromVisibWave heightAir tempDewpointWater temp
2018-Jun-17 22:37N 45°26' E 036°42'1 8.1
2018-Jun-17 22:30N 45°25' E 036°41'4 8.0
2018-Jun-17 21:59N 45°21' E 036°40'3 6.4
2018-Jun-17 21:29N 45°20' E 036°36'252 6.6
2018-Jun-16 07:18N 43°12' E 031°32'51 8.5
2018-Jun-16 01:15N 42°56' E 030°26'5 9.0
2018-Jun-16 00:41N 42°55' E 030°19'3 9.0
2018-Jun-16 00:20N 42°54' E 030°15'5 9.0
2018-Jun-15 23:44N 42°53' E 030°08'2 9.1
2018-Jun-15 23:30N 42°52' E 030°05'4 9.0
2018-Jun-15 23:01N 42°51' E 029°59'4 9.0
2018-Jun-15 22:30N 42°49' E 029°53'4 8.8
2018-Jun-15 22:00N 42°48' E 029°48'5 8.8
2018-Jun-15 21:29N 42°47' E 029°42'4 8.7
2018-Jun-15 21:00N 42°46' E 029°36'4 8.6
2018-Jun-15 20:29N 42°45' E 029°30'4 8.7
2018-Jun-15 20:00N 42°44' E 029°25'4 8.8
2018-Jun-15 19:30N 42°42' E 029°19'5 8.7
2018-Jun-15 18:59N 42°41' E 029°13'4 8.6
2018-Jun-15 18:29N 42°40' E 029°07'4 8.6
2018-Jun-15 18:00N 42°39' E 029°02'4 8.4
2018-Jun-15 17:30N 42°38' E 028°57'4 8.2
2018-Jun-15 17:00N 42°36' E 028°51'4 8.0
2018-Jun-15 16:30N 42°35' E 028°46'4 8.1
2018-Jun-15 16:00N 42°34' E 028°41'4 8.0
2018-Jun-15 15:30N 42°33' E 028°36'4 7.8
2018-Jun-15 15:00N 42°32' E 028°30'5 7.8
2018-Jun-15 14:22N 42°31' E 028°24'41 2.2
2018-Jun-14 19:42N 42°29' E 027°29'0 0.0
2018-Jun-14 19:30N 42°29' E 027°29'2 0.1
2018-Jun-13 20:38N 42°28' E 027°30'0 0.3
2018-Jun-13 20:28N 42°28' E 027°30'3 6.7
2018-Jun-13 20:00N 42°29' E 027°34'4 7.7
2018-Jun-13 19:28N 42°29' E 027°40'4 7.6
2018-Jun-13 18:59N 42°29' E 027°45'5 7.5
2018-Jun-13 18:23N 42°30' E 027°51'3 7.4
2018-Jun-13 18:00N 42°30' E 027°55'4 7.3
2018-Jun-13 17:29N 42°30' E 027°60'4 7.2
2018-Jun-13 17:00N 42°31' E 028°05'4 7.0
2018-Jun-13 16:24N 42°31' E 028°10'3 7.0
2018-Jun-13 16:00N 42°32' E 028°14'4 6.8
2018-Jun-13 15:29N 42°33' E 028°19'4 6.9
2018-Jun-13 14:49N 42°34' E 028°25'3 6.9
2018-Jun-13 14:24N 42°35' E 028°28'3 7.2
2018-Jun-13 14:00N 42°35' E 028°32'4 7.4
2018-Jun-13 13:30N 42°36' E 028°37'4 7.5
2018-Jun-13 13:00N 42°38' E 028°42'4 7.6
2018-Jun-13 12:30N 42°39' E 028°47'4 7.7
2018-Jun-13 12:00N 42°40' E 028°52'4 7.6
2018-Jun-13 11:30N 42°41' E 028°57'4 7.6
2018-Jun-13 11:00N 42°41' E 029°02'4 7.6
2018-Jun-13 10:30N 42°42' E 029°07'4 7.7
2018-Jun-13 10:01N 42°43' E 029°12'4 7.8
2018-Jun-13 09:30N 42°44' E 029°17'6 7.8
2018-Jun-13 08:42N 42°46' E 029°26'2 7.9
2018-Jun-13 08:29N 42°46' E 029°28'4 7.9
2018-Jun-13 08:00N 42°47' E 029°33'5 7.9
2018-Jun-13 07:21N 42°49' E 029°39'3 8.0
2018-Jun-13 07:00N 42°49' E 029°43'4 8.0
2018-Jun-13 06:30N 42°50' E 029°48'12 7.9
2018-Jun-13 05:00N 42°54' E 030°04'4 7.8
2018-Jun-13 04:30N 42°55' E 030°09'4 7.7
2018-Jun-13 04:00N 42°56' E 030°14'5 7.7
2018-Jun-13 03:23N 42°57' E 030°21'4 7.3
2018-Jun-13 02:54N 42°58' E 030°25'3 7.4
2018-Jun-13 02:29N 42°58' E 030°29'3 7.3
2018-Jun-13 02:00N 42°59' E 030°34'4 7.3
2018-Jun-13 01:30N 43°00' E 030°39'4 7.3
2018-Jun-13 01:00N 43°01' E 030°44'4 7.2
2018-Jun-13 00:30N 43°02' E 030°48'4 7.1
2018-Jun-13 00:00N 43°03' E 030°53'4 7.3
2018-Jun-12 23:30N 43°04' E 030°58'4 7.2
2018-Jun-12 23:00N 43°05' E 031°03'4 7.3
2018-Jun-12 22:30N 43°06' E 031°07'4 7.4
2018-Jun-12 21:59N 43°07' E 031°12'4 7.5
2018-Jun-12 21:30N 43°08' E 031°17'4 7.6
2018-Jun-12 21:00N 43°09' E 031°22'4 7.6
2018-Jun-12 20:30N 43°10' E 031°27'4 7.5
2018-Jun-12 20:00N 43°11' E 031°32'4 7.5
2018-Jun-12 19:29N 43°13' E 031°37'4 7.6
2018-Jun-12 18:56N 43°14' E 031°43'3 7.7
2018-Jun-12 18:30N 43°15' E 031°47'232 7.7
2018-Jun-11 12:17N 45°08' E 036°29'3 7.8
2018-Jun-11 11:56N 45°11' E 036°28'4 7.8
2018-Jun-11 11:27N 45°15' E 036°28'4 7.5
2018-Jun-11 10:57N 45°18' E 036°30'4 9.3
2018-Jun-11 10:29N 45°20' E 036°36'4 8.2
2018-Jun-11 10:00N 45°23' E 036°40'4 7.5
2018-Jun-11 09:30N 45°26' E 036°40'3 6.6
2018-Jun-11 09:00N 45°29' E 036°38'0 0.2
2018-Jun-11 08:30N 45°29' E 036°38'0 0.0
2018-Jun-11 08:00N 45°29' E 036°38'0 0.0
2018-Jun-11 07:30N 45°29' E 036°38'0 0.0
2018-Jun-11 07:00N 45°29' E 036°38'0 0.0
2018-Jun-11 06:30N 45°29' E 036°38'0 0.0
2018-Jun-11 05:57N 45°29' E 036°38'0 0.0
2018-Jun-11 05:30N 45°29' E 036°38'0 0.1
2018-Jun-11 05:00N 45°29' E 036°38'3 5.4
2018-Jun-11 04:30N 45°32' E 036°39'  
Track history (hours):
 
Tides and Currents Weather Stations Pressure Air Temp Water Temp Dewpoint Dewpoint Depression Visibility Wind Speed Wind Dir Waves Ship Positions

Cea Eagle

Last reported at 2018-Jun-17 22:37 UTC. Time now 2018-Jun-20 03:58 UTC.
Position N 45°26' E 036°42'.

Length 228 m.

Type: Ship. MMSI: 351071424.

Date/timePositionNaut miles runAvg speedWind from/ knotsBaromVisibWave heightAir tempDewpointWater temp
2018-Jun-17 22:37N 45°26' E 036°42'1 8.1
2018-Jun-17 22:30N 45°25' E 036°41'4 8.0
2018-Jun-17 21:59N 45°21' E 036°40'3 6.4
2018-Jun-17 21:29N 45°20' E 036°36'252 6.6
2018-Jun-16 07:18N 43°12' E 031°32'51 8.5
2018-Jun-16 01:15N 42°56' E 030°26'5 9.0
2018-Jun-16 00:41N 42°55' E 030°19'3 9.0
2018-Jun-16 00:20N 42°54' E 030°15'5 9.0
2018-Jun-15 23:44N 42°53' E 030°08'2 9.1
2018-Jun-15 23:30N 42°52' E 030°05'4 9.0
2018-Jun-15 23:01N 42°51' E 029°59'4 9.0
2018-Jun-15 22:30N 42°49' E 029°53'4 8.8
2018-Jun-15 22:00N 42°48' E 029°48'5 8.8
2018-Jun-15 21:29N 42°47' E 029°42'4 8.7
2018-Jun-15 21:00N 42°46' E 029°36'4 8.6
2018-Jun-15 20:29N 42°45' E 029°30'4 8.7
2018-Jun-15 20:00N 42°44' E 029°25'4 8.8
2018-Jun-15 19:30N 42°42' E 029°19'5 8.7
2018-Jun-15 18:59N 42°41' E 029°13'4 8.6
2018-Jun-15 18:29N 42°40' E 029°07'4 8.6
2018-Jun-15 18:00N 42°39' E 029°02'4 8.4
2018-Jun-15 17:30N 42°38' E 028°57'4 8.2
2018-Jun-15 17:00N 42°36' E 028°51'4 8.0
2018-Jun-15 16:30N 42°35' E 028°46'4 8.1
2018-Jun-15 16:00N 42°34' E 028°41'4 8.0
2018-Jun-15 15:30N 42°33' E 028°36'4 7.8
2018-Jun-15 15:00N 42°32' E 028°30'5 7.8
2018-Jun-15 14:22N 42°31' E 028°24'41 2.2
2018-Jun-14 19:42N 42°29' E 027°29'0 0.0
2018-Jun-14 19:30N 42°29' E 027°29'2 0.1
2018-Jun-13 20:38N 42°28' E 027°30'0 0.3
2018-Jun-13 20:28N 42°28' E 027°30'3 6.7
2018-Jun-13 20:00N 42°29' E 027°34'4 7.7
2018-Jun-13 19:28N 42°29' E 027°40'4 7.6
2018-Jun-13 18:59N 42°29' E 027°45'5 7.5
2018-Jun-13 18:23N 42°30' E 027°51'3 7.4
2018-Jun-13 18:00N 42°30' E 027°55'4 7.3
2018-Jun-13 17:29N 42°30' E 027°60'4 7.2
2018-Jun-13 17:00N 42°31' E 028°05'4 7.0
2018-Jun-13 16:24N 42°31' E 028°10'3 7.0
2018-Jun-13 16:00N 42°32' E 028°14'4 6.8
2018-Jun-13 15:29N 42°33' E 028°19'4 6.9
2018-Jun-13 14:49N 42°34' E 028°25'3 6.9
2018-Jun-13 14:24N 42°35' E 028°28'3 7.2
2018-Jun-13 14:00N 42°35' E 028°32'4 7.4
2018-Jun-13 13:30N 42°36' E 028°37'4 7.5
2018-Jun-13 13:00N 42°38' E 028°42'4 7.6
2018-Jun-13 12:30N 42°39' E 028°47'4 7.7
2018-Jun-13 12:00N 42°40' E 028°52'4 7.6
2018-Jun-13 11:30N 42°41' E 028°57'4 7.6
2018-Jun-13 11:00N 42°41' E 029°02'4 7.6
2018-Jun-13 10:30N 42°42' E 029°07'4 7.7
2018-Jun-13 10:01N 42°43' E 029°12'4 7.8
2018-Jun-13 09:30N 42°44' E 029°17'6 7.8
2018-Jun-13 08:42N 42°46' E 029°26'2 7.9
2018-Jun-13 08:29N 42°46' E 029°28'4 7.9
2018-Jun-13 08:00N 42°47' E 029°33'5 7.9
2018-Jun-13 07:21N 42°49' E 029°39'3 8.0
2018-Jun-13 07:00N 42°49' E 029°43'4 8.0
2018-Jun-13 06:30N 42°50' E 029°48'12 7.9
2018-Jun-13 05:00N 42°54' E 030°04'4 7.8
2018-Jun-13 04:30N 42°55' E 030°09'4 7.7
2018-Jun-13 04:00N 42°56' E 030°14'5 7.7
2018-Jun-13 03:23N 42°57' E 030°21'4 7.3
2018-Jun-13 02:54N 42°58' E 030°25'3 7.4
2018-Jun-13 02:29N 42°58' E 030°29'3 7.3
2018-Jun-13 02:00N 42°59' E 030°34'4 7.3
2018-Jun-13 01:30N 43°00' E 030°39'4 7.3
2018-Jun-13 01:00N 43°01' E 030°44'4 7.2
2018-Jun-13 00:30N 43°02' E 030°48'4 7.1
2018-Jun-13 00:00N 43°03' E 030°53'4 7.3
2018-Jun-12 23:30N 43°04' E 030°58'4 7.2
2018-Jun-12 23:00N 43°05' E 031°03'4 7.3
2018-Jun-12 22:30N 43°06' E 031°07'4 7.4
2018-Jun-12 21:59N 43°07' E 031°12'4 7.5
2018-Jun-12 21:30N 43°08' E 031°17'4 7.6
2018-Jun-12 21:00N 43°09' E 031°22'4 7.6
2018-Jun-12 20:30N 43°10' E 031°27'4 7.5
2018-Jun-12 20:00N 43°11' E 031°32'4 7.5
2018-Jun-12 19:29N 43°13' E 031°37'4 7.6
2018-Jun-12 18:56N 43°14' E 031°43'3 7.7
2018-Jun-12 18:30N 43°15' E 031°47'232 7.7
2018-Jun-11 12:17N 45°08' E 036°29'3 7.8
2018-Jun-11 11:56N 45°11' E 036°28'4 7.8
2018-Jun-11 11:27N 45°15' E 036°28'4 7.5
2018-Jun-11 10:57N 45°18' E 036°30'4 9.3
2018-Jun-11 10:29N 45°20' E 036°36'4 8.2
2018-Jun-11 10:00N 45°23' E 036°40'4 7.5
2018-Jun-11 09:30N 45°26' E 036°40'3 6.6
2018-Jun-11 09:00N 45°29' E 036°38'0 0.2
2018-Jun-11 08:30N 45°29' E 036°38'0 0.0
2018-Jun-11 08:00N 45°29' E 036°38'0 0.0
2018-Jun-11 07:30N 45°29' E 036°38'0 0.0
2018-Jun-11 07:00N 45°29' E 036°38'0 0.0
2018-Jun-11 06:30N 45°29' E 036°38'0 0.0
2018-Jun-11 05:57N 45°29' E 036°38'0 0.0
2018-Jun-11 05:30N 45°29' E 036°38'0 0.1
2018-Jun-11 05:00N 45°29' E 036°38'3 5.4
2018-Jun-11 04:30N 45°32' E 036°39'  

Dump ship's entire track history